sensor_id;sensor_type;location;lat;lon;timestamp;P1;durP1;ratioP1;P2;durP2;ratioP2
22894;SDS011;11614;52.494;6.976;2023-05-10T00:02:12;14.43;;;8.13;;
22894;SDS011;11614;52.494;6.976;2023-05-10T00:04:38;11.13;;;7.07;;
22894;SDS011;11614;52.494;6.976;2023-05-10T00:07:04;7.93;;;5.63;;
22894;SDS011;11614;52.494;6.976;2023-05-10T00:09:30;7.43;;;4.70;;
22894;SDS011;11614;52.494;6.976;2023-05-10T00:11:55;6.47;;;3.97;;
22894;SDS011;11614;52.494;6.976;2023-05-10T00:14:23;9.40;;;6.00;;
22894;SDS011;11614;52.494;6.976;2023-05-10T00:16:49;9.67;;;5.60;;
22894;SDS011;11614;52.494;6.976;2023-05-10T00:19:15;6.57;;;4.20;;
22894;SDS011;11614;52.494;6.976;2023-05-10T00:21:40;8.23;;;5.00;;
22894;SDS011;11614;52.494;6.976;2023-05-10T00:24:06;10.27;;;5.87;;
22894;SDS011;11614;52.494;6.976;2023-05-10T00:26:32;10.57;;;7.67;;
22894;SDS011;11614;52.494;6.976;2023-05-10T00:28:58;10.57;;;7.53;;
22894;SDS011;11614;52.494;6.976;2023-05-10T00:31:24;8.70;;;5.33;;
22894;SDS011;11614;52.494;6.976;2023-05-10T00:33:50;10.70;;;5.97;;
22894;SDS011;11614;52.494;6.976;2023-05-10T00:36:16;8.43;;;6.20;;
22894;SDS011;11614;52.494;6.976;2023-05-10T00:38:42;9.93;;;5.30;;
22894;SDS011;11614;52.494;6.976;2023-05-10T00:41:08;8.93;;;6.33;;
22894;SDS011;11614;52.494;6.976;2023-05-10T00:43:34;11.00;;;7.20;;
22894;SDS011;11614;52.494;6.976;2023-05-10T00:45:59;9.83;;;6.63;;
22894;SDS011;11614;52.494;6.976;2023-05-10T00:48:25;7.03;;;4.10;;
22894;SDS011;11614;52.494;6.976;2023-05-10T00:50:51;5.53;;;3.97;;
22894;SDS011;11614;52.494;6.976;2023-05-10T00:53:17;8.37;;;4.97;;
22894;SDS011;11614;52.494;6.976;2023-05-10T00:55:44;12.63;;;7.27;;
22894;SDS011;11614;52.494;6.976;2023-05-10T00:58:10;10.57;;;6.07;;
22894;SDS011;11614;52.494;6.976;2023-05-10T01:00:35;9.47;;;6.37;;
22894;SDS011;11614;52.494;6.976;2023-05-10T01:03:03;10.60;;;7.60;;
22894;SDS011;11614;52.494;6.976;2023-05-10T01:05:29;10.77;;;7.30;;
22894;SDS011;11614;52.494;6.976;2023-05-10T01:07:56;10.47;;;8.03;;
22894;SDS011;11614;52.494;6.976;2023-05-10T01:10:22;11.47;;;8.50;;
22894;SDS011;11614;52.494;6.976;2023-05-10T01:12:48;11.77;;;7.60;;
22894;SDS011;11614;52.494;6.976;2023-05-10T01:15:13;11.20;;;7.77;;
22894;SDS011;11614;52.494;6.976;2023-05-10T01:17:41;13.23;;;9.00;;
22894;SDS011;11614;52.494;6.976;2023-05-10T01:20:09;12.40;;;7.63;;
22894;SDS011;11614;52.494;6.976;2023-05-10T01:22:50;15.53;;;9.00;;
22894;SDS011;11614;52.494;6.976;2023-05-10T01:28:42;15.30;;;10.73;;
22894;SDS011;11614;52.494;6.976;2023-05-10T01:34:35;16.87;;;10.80;;
22894;SDS011;11614;52.494;6.976;2023-05-10T01:37:07;13.77;;;9.03;;
22894;SDS011;11614;52.494;6.976;2023-05-10T01:42:54;19.63;;;12.07;;
22894;SDS011;11614;52.494;6.976;2023-05-10T01:45:28;18.63;;;12.80;;
22894;SDS011;11614;52.494;6.976;2023-05-10T01:48:06;14.53;;;7.47;;
22894;SDS011;11614;52.494;6.976;2023-05-10T01:50:35;16.53;;;10.83;;
22894;SDS011;11614;52.494;6.976;2023-05-10T01:53:02;12.27;;;6.50;;
22894;SDS011;11614;52.494;6.976;2023-05-10T01:55:52;17.53;;;12.13;;
22894;SDS011;11614;52.494;6.976;2023-05-10T01:58:21;17.00;;;11.90;;
22894;SDS011;11614;52.494;6.976;2023-05-10T02:00:52;14.30;;;11.13;;
22894;SDS011;11614;52.494;6.976;2023-05-10T02:03:20;16.13;;;11.27;;
22894;SDS011;11614;52.494;6.976;2023-05-10T02:05:48;18.73;;;11.80;;
22894;SDS011;11614;52.494;6.976;2023-05-10T02:08:14;15.37;;;9.97;;
22894;SDS011;11614;52.494;6.976;2023-05-10T02:10:42;17.43;;;9.90;;
22894;SDS011;11614;52.494;6.976;2023-05-10T02:13:08;16.53;;;11.13;;
22894;SDS011;11614;52.494;6.976;2023-05-10T02:15:35;12.97;;;8.93;;
22894;SDS011;11614;52.494;6.976;2023-05-10T02:18:03;14.93;;;9.43;;
22894;SDS011;11614;52.494;6.976;2023-05-10T02:20:30;11.53;;;6.67;;
22894;SDS011;11614;52.494;6.976;2023-05-10T02:22:57;14.20;;;9.70;;
22894;SDS011;11614;52.494;6.976;2023-05-10T02:25:24;16.80;;;9.50;;
22894;SDS011;11614;52.494;6.976;2023-05-10T02:27:51;16.20;;;11.17;;
22894;SDS011;11614;52.494;6.976;2023-05-10T02:30:20;17.13;;;11.67;;
22894;SDS011;11614;52.494;6.976;2023-05-10T02:32:47;17.37;;;11.17;;
22894;SDS011;11614;52.494;6.976;2023-05-10T02:35:14;17.13;;;10.57;;
22894;SDS011;11614;52.494;6.976;2023-05-10T02:37:41;16.87;;;10.17;;
22894;SDS011;11614;52.494;6.976;2023-05-10T02:40:08;16.80;;;11.00;;
22894;SDS011;11614;52.494;6.976;2023-05-10T02:42:36;17.17;;;10.33;;
22894;SDS011;11614;52.494;6.976;2023-05-10T02:45:23;19.93;;;11.47;;
22894;SDS011;11614;52.494;6.976;2023-05-10T02:47:53;17.23;;;10.53;;
22894;SDS011;11614;52.494;6.976;2023-05-10T02:50:19;18.00;;;11.50;;
22894;SDS011;11614;52.494;6.976;2023-05-10T02:52:50;19.93;;;11.20;;
22894;SDS011;11614;52.494;6.976;2023-05-10T02:55:20;15.20;;;9.27;;
22894;SDS011;11614;52.494;6.976;2023-05-10T02:57:50;16.83;;;9.70;;
22894;SDS011;11614;52.494;6.976;2023-05-10T03:00:21;17.13;;;10.33;;
22894;SDS011;11614;52.494;6.976;2023-05-10T03:02:47;19.80;;;12.47;;
22894;SDS011;11614;52.494;6.976;2023-05-10T03:05:13;16.57;;;11.10;;
22894;SDS011;11614;52.494;6.976;2023-05-10T03:07:38;18.30;;;10.93;;
22894;SDS011;11614;52.494;6.976;2023-05-10T03:10:04;16.93;;;10.00;;
22894;SDS011;11614;52.494;6.976;2023-05-10T03:15:55;18.30;;;10.90;;
22894;SDS011;11614;52.494;6.976;2023-05-10T03:20:55;17.70;;;10.57;;
22894;SDS011;11614;52.494;6.976;2023-05-10T03:23:30;19.30;;;11.97;;
22894;SDS011;11614;52.494;6.976;2023-05-10T03:26:00;21.37;;;11.37;;
22894;SDS011;11614;52.494;6.976;2023-05-10T03:28:27;19.17;;;9.57;;
22894;SDS011;11614;52.494;6.976;2023-05-10T03:30:53;17.50;;;11.30;;
22894;SDS011;11614;52.494;6.976;2023-05-10T03:33:20;20.57;;;12.60;;
22894;SDS011;11614;52.494;6.976;2023-05-10T03:35:46;20.67;;;12.13;;
22894;SDS011;11614;52.494;6.976;2023-05-10T03:38:12;19.73;;;12.37;;
22894;SDS011;11614;52.494;6.976;2023-05-10T03:40:38;17.53;;;11.00;;
22894;SDS011;11614;52.494;6.976;2023-05-10T03:43:04;19.03;;;11.17;;
22894;SDS011;11614;52.494;6.976;2023-05-10T03:45:30;17.50;;;11.30;;
22894;SDS011;11614;52.494;6.976;2023-05-10T03:47:57;22.50;;;12.67;;
22894;SDS011;11614;52.494;6.976;2023-05-10T03:50:23;20.53;;;11.57;;
22894;SDS011;11614;52.494;6.976;2023-05-10T03:52:49;20.87;;;11.90;;
22894;SDS011;11614;52.494;6.976;2023-05-10T03:55:15;24.07;;;12.83;;
22894;SDS011;11614;52.494;6.976;2023-05-10T03:57:41;15.83;;;8.00;;
22894;SDS011;11614;52.494;6.976;2023-05-10T04:00:07;22.23;;;13.17;;
22894;SDS011;11614;52.494;6.976;2023-05-10T04:02:33;23.40;;;13.53;;
22894;SDS011;11614;52.494;6.976;2023-05-10T04:04:59;26.30;;;13.70;;
22894;SDS011;11614;52.494;6.976;2023-05-10T04:07:25;24.27;;;14.23;;
22894;SDS011;11614;52.494;6.976;2023-05-10T04:09:51;22.23;;;11.47;;
22894;SDS011;11614;52.494;6.976;2023-05-10T04:12:17;23.13;;;13.33;;
22894;SDS011;11614;52.494;6.976;2023-05-10T04:14:43;21.23;;;12.37;;
22894;SDS011;11614;52.494;6.976;2023-05-10T04:17:09;20.10;;;11.87;;
22894;SDS011;11614;52.494;6.976;2023-05-10T04:19:35;23.00;;;13.30;;
22894;SDS011;11614;52.494;6.976;2023-05-10T04:22:02;27.67;;;14.77;;
22894;SDS011;11614;52.494;6.976;2023-05-10T04:24:28;24.03;;;13.47;;
22894;SDS011;11614;52.494;6.976;2023-05-10T04:26:54;23.00;;;13.07;;
22894;SDS011;11614;52.494;6.976;2023-05-10T04:29:20;22.50;;;12.67;;
22894;SDS011;11614;52.494;6.976;2023-05-10T04:31:46;24.73;;;14.47;;
22894;SDS011;11614;52.494;6.976;2023-05-10T04:34:12;20.47;;;11.30;;
22894;SDS011;11614;52.494;6.976;2023-05-10T04:36:37;21.67;;;11.53;;
22894;SDS011;11614;52.494;6.976;2023-05-10T04:39:03;16.97;;;8.70;;
22894;SDS011;11614;52.494;6.976;2023-05-10T04:41:29;23.50;;;12.90;;
22894;SDS011;11614;52.494;6.976;2023-05-10T04:43:54;21.23;;;13.50;;
22894;SDS011;11614;52.494;6.976;2023-05-10T04:46:21;21.73;;;12.97;;
22894;SDS011;11614;52.494;6.976;2023-05-10T04:48:47;24.03;;;13.83;;
22894;SDS011;11614;52.494;6.976;2023-05-10T04:51:13;26.83;;;13.57;;
22894;SDS011;11614;52.494;6.976;2023-05-10T04:53:38;21.10;;;12.80;;
22894;SDS011;11614;52.494;6.976;2023-05-10T04:56:04;23.60;;;12.90;;
22894;SDS011;11614;52.494;6.976;2023-05-10T04:58:30;21.27;;;11.13;;
22894;SDS011;11614;52.494;6.976;2023-05-10T05:00:56;19.00;;;11.93;;
22894;SDS011;11614;52.494;6.976;2023-05-10T05:03:22;20.13;;;11.80;;
22894;SDS011;11614;52.494;6.976;2023-05-10T05:05:48;18.10;;;11.30;;
22894;SDS011;11614;52.494;6.976;2023-05-10T05:08:13;21.47;;;12.83;;
22894;SDS011;11614;52.494;6.976;2023-05-10T05:10:39;20.73;;;11.67;;
22894;SDS011;11614;52.494;6.976;2023-05-10T05:13:05;18.50;;;11.30;;
22894;SDS011;11614;52.494;6.976;2023-05-10T05:15:31;20.53;;;10.70;;
22894;SDS011;11614;52.494;6.976;2023-05-10T05:17:57;20.30;;;12.03;;
22894;SDS011;11614;52.494;6.976;2023-05-10T05:20:23;23.17;;;12.27;;
22894;SDS011;11614;52.494;6.976;2023-05-10T05:22:49;22.73;;;13.87;;
22894;SDS011;11614;52.494;6.976;2023-05-10T05:25:15;26.77;;;12.60;;
22894;SDS011;11614;52.494;6.976;2023-05-10T05:27:41;25.23;;;15.37;;
22894;SDS011;11614;52.494;6.976;2023-05-10T05:30:07;27.10;;;12.27;;
22894;SDS011;11614;52.494;6.976;2023-05-10T05:32:33;26.50;;;15.33;;
22894;SDS011;11614;52.494;6.976;2023-05-10T05:34:59;33.47;;;16.30;;
22894;SDS011;11614;52.494;6.976;2023-05-10T05:37:25;24.53;;;11.57;;
22894;SDS011;11614;52.494;6.976;2023-05-10T05:39:50;28.17;;;15.40;;
22894;SDS011;11614;52.494;6.976;2023-05-10T05:42:16;29.67;;;16.83;;
22894;SDS011;11614;52.494;6.976;2023-05-10T05:44:43;28.77;;;16.53;;
22894;SDS011;11614;52.494;6.976;2023-05-10T05:47:10;29.97;;;15.03;;
22894;SDS011;11614;52.494;6.976;2023-05-10T05:49:39;25.93;;;13.70;;
22894;SDS011;11614;52.494;6.976;2023-05-10T05:52:05;22.27;;;12.00;;
22894;SDS011;11614;52.494;6.976;2023-05-10T05:54:31;31.40;;;17.37;;
22894;SDS011;11614;52.494;6.976;2023-05-10T05:56:57;28.87;;;15.03;;
22894;SDS011;11614;52.494;6.976;2023-05-10T05:59:23;28.87;;;16.97;;
22894;SDS011;11614;52.494;6.976;2023-05-10T06:01:50;21.00;;;10.67;;
22894;SDS011;11614;52.494;6.976;2023-05-10T06:04:16;32.27;;;18.10;;
22894;SDS011;11614;52.494;6.976;2023-05-10T06:06:42;26.53;;;14.97;;
22894;SDS011;11614;52.494;6.976;2023-05-10T06:09:08;24.50;;;13.63;;
22894;SDS011;11614;52.494;6.976;2023-05-10T06:11:34;28.80;;;13.73;;
22894;SDS011;11614;52.494;6.976;2023-05-10T06:14:01;24.53;;;12.80;;
22894;SDS011;11614;52.494;6.976;2023-05-10T06:16:28;23.33;;;13.30;;
22894;SDS011;11614;52.494;6.976;2023-05-10T06:18:54;23.43;;;12.77;;
22894;SDS011;11614;52.494;6.976;2023-05-10T06:21:20;26.60;;;14.20;;
22894;SDS011;11614;52.494;6.976;2023-05-10T06:23:46;22.43;;;13.07;;
22894;SDS011;11614;52.494;6.976;2023-05-10T06:26:12;23.30;;;13.93;;
22894;SDS011;11614;52.494;6.976;2023-05-10T06:28:38;24.37;;;12.63;;
22894;SDS011;11614;52.494;6.976;2023-05-10T06:31:05;24.10;;;14.20;;
22894;SDS011;11614;52.494;6.976;2023-05-10T06:33:31;27.93;;;14.97;;
22894;SDS011;11614;52.494;6.976;2023-05-10T06:35:57;22.57;;;12.43;;
22894;SDS011;11614;52.494;6.976;2023-05-10T06:38:23;25.10;;;13.57;;
22894;SDS011;11614;52.494;6.976;2023-05-10T06:40:49;24.53;;;13.03;;
22894;SDS011;11614;52.494;6.976;2023-05-10T06:43:16;19.33;;;8.73;;
22894;SDS011;11614;52.494;6.976;2023-05-10T06:45:42;21.07;;;13.17;;
22894;SDS011;11614;52.494;6.976;2023-05-10T06:48:08;23.90;;;12.77;;
22894;SDS011;11614;52.494;6.976;2023-05-10T06:50:34;21.50;;;13.43;;
22894;SDS011;11614;52.494;6.976;2023-05-10T06:53:00;22.53;;;13.40;;
22894;SDS011;11614;52.494;6.976;2023-05-10T06:55:27;19.90;;;9.67;;
22894;SDS011;11614;52.494;6.976;2023-05-10T06:57:53;22.83;;;12.93;;
22894;SDS011;11614;52.494;6.976;2023-05-10T07:00:19;22.07;;;12.87;;
22894;SDS011;11614;52.494;6.976;2023-05-10T07:02:45;21.80;;;13.13;;
22894;SDS011;11614;52.494;6.976;2023-05-10T07:05:11;21.33;;;12.40;;
22894;SDS011;11614;52.494;6.976;2023-05-10T07:07:37;18.43;;;9.37;;
22894;SDS011;11614;52.494;6.976;2023-05-10T07:10:03;20.77;;;11.70;;
22894;SDS011;11614;52.494;6.976;2023-05-10T07:12:29;20.50;;;12.60;;
22894;SDS011;11614;52.494;6.976;2023-05-10T07:14:55;22.27;;;13.90;;
22894;SDS011;11614;52.494;6.976;2023-05-10T07:17:21;21.33;;;11.83;;
22894;SDS011;11614;52.494;6.976;2023-05-10T07:19:47;18.03;;;11.07;;
22894;SDS011;11614;52.494;6.976;2023-05-10T07:22:13;15.20;;;8.90;;
22894;SDS011;11614;52.494;6.976;2023-05-10T07:24:39;22.27;;;12.13;;
22894;SDS011;11614;52.494;6.976;2023-05-10T07:27:05;15.87;;;10.63;;
22894;SDS011;11614;52.494;6.976;2023-05-10T07:29:32;21.17;;;11.37;;
22894;SDS011;11614;52.494;6.976;2023-05-10T07:31:57;11.80;;;6.33;;
22894;SDS011;11614;52.494;6.976;2023-05-10T07:34:23;14.93;;;8.43;;
22894;SDS011;11614;52.494;6.976;2023-05-10T07:36:49;11.37;;;6.30;;
22894;SDS011;11614;52.494;6.976;2023-05-10T07:39:15;12.47;;;6.10;;
22894;SDS011;11614;52.494;6.976;2023-05-10T07:41:41;23.47;;;12.73;;
22894;SDS011;11614;52.494;6.976;2023-05-10T07:44:12;15.67;;;8.13;;
22894;SDS011;11614;52.494;6.976;2023-05-10T07:46:44;18.60;;;10.30;;
22894;SDS011;11614;52.494;6.976;2023-05-10T07:49:10;17.23;;;10.50;;
22894;SDS011;11614;52.494;6.976;2023-05-10T07:51:35;23.63;;;13.97;;
22894;SDS011;11614;52.494;6.976;2023-05-10T07:54:01;22.07;;;12.70;;
22894;SDS011;11614;52.494;6.976;2023-05-10T07:56:28;20.77;;;13.10;;
22894;SDS011;11614;52.494;6.976;2023-05-10T07:58:58;15.23;;;8.37;;
22894;SDS011;11614;52.494;6.976;2023-05-10T08:01:24;22.13;;;9.97;;
22894;SDS011;11614;52.494;6.976;2023-05-10T08:03:50;15.37;;;7.97;;
22894;SDS011;11614;52.494;6.976;2023-05-10T08:06:18;11.93;;;7.77;;
22894;SDS011;11614;52.494;6.976;2023-05-10T08:08:45;17.73;;;11.23;;
22894;SDS011;11614;52.494;6.976;2023-05-10T08:11:14;16.73;;;9.25;;
22894;SDS011;11614;52.494;6.976;2023-05-10T08:13:40;16.00;;;9.45;;
22894;SDS011;11614;52.494;6.976;2023-05-10T08:16:06;13.73;;;8.23;;
22894;SDS011;11614;52.494;6.976;2023-05-10T08:18:32;14.02;;;8.70;;
22894;SDS011;11614;52.494;6.976;2023-05-10T08:20:58;13.40;;;9.15;;
22894;SDS011;11614;52.494;6.976;2023-05-10T08:23:24;10.27;;;6.82;;
22894;SDS011;11614;52.494;6.976;2023-05-10T08:25:50;15.35;;;9.73;;
22894;SDS011;11614;52.494;6.976;2023-05-10T08:28:16;16.08;;;9.90;;
22894;SDS011;11614;52.494;6.976;2023-05-10T08:30:42;12.35;;;7.53;;
22894;SDS011;11614;52.494;6.976;2023-05-10T08:33:08;11.07;;;8.07;;
22894;SDS011;11614;52.494;6.976;2023-05-10T08:35:34;12.95;;;6.85;;
22894;SDS011;11614;52.494;6.976;2023-05-10T08:38:00;14.68;;;9.18;;
22894;SDS011;11614;52.494;6.976;2023-05-10T08:40:27;13.68;;;8.52;;
22894;SDS011;11614;52.494;6.976;2023-05-10T08:43:02;12.70;;;7.85;;
22894;SDS011;11614;52.494;6.976;2023-05-10T08:45:31;8.27;;;5.65;;
22894;SDS011;11614;52.494;6.976;2023-05-10T08:47:58;7.30;;;5.00;;
22894;SDS011;11614;52.494;6.976;2023-05-10T08:50:25;10.35;;;6.40;;
22894;SDS011;11614;52.494;6.976;2023-05-10T08:52:51;9.38;;;5.32;;
22894;SDS011;11614;52.494;6.976;2023-05-10T08:55:18;13.23;;;7.60;;
22894;SDS011;11614;52.494;6.976;2023-05-10T08:57:44;7.07;;;4.40;;
22894;SDS011;11614;52.494;6.976;2023-05-10T09:00:11;11.73;;;4.63;;
22894;SDS011;11614;52.494;6.976;2023-05-10T09:02:38;8.60;;;6.15;;
22894;SDS011;11614;52.494;6.976;2023-05-10T09:05:04;10.95;;;6.28;;
22894;SDS011;11614;52.494;6.976;2023-05-10T09:07:30;7.28;;;3.85;;
22894;SDS011;11614;52.494;6.976;2023-05-10T09:09:56;8.63;;;5.57;;
22894;SDS011;11614;52.494;6.976;2023-05-10T09:12:22;6.07;;;4.28;;
22894;SDS011;11614;52.494;6.976;2023-05-10T09:14:49;10.25;;;5.63;;
22894;SDS011;11614;52.494;6.976;2023-05-10T09:17:16;5.90;;;3.35;;
22894;SDS011;11614;52.494;6.976;2023-05-10T09:19:42;8.38;;;5.20;;
22894;SDS011;11614;52.494;6.976;2023-05-10T09:22:08;5.70;;;2.85;;
22894;SDS011;11614;52.494;6.976;2023-05-10T09:24:36;7.70;;;4.82;;
22894;SDS011;11614;52.494;6.976;2023-05-10T09:27:07;7.43;;;4.18;;
22894;SDS011;11614;52.494;6.976;2023-05-10T09:29:40;6.90;;;4.13;;
22894;SDS011;11614;52.494;6.976;2023-05-10T09:32:06;4.97;;;2.95;;
22894;SDS011;11614;52.494;6.976;2023-05-10T09:34:32;4.40;;;2.58;;
22894;SDS011;11614;52.494;6.976;2023-05-10T09:37:00;3.97;;;2.90;;
22894;SDS011;11614;52.494;6.976;2023-05-10T09:39:36;4.00;;;2.53;;
22894;SDS011;11614;52.494;6.976;2023-05-10T09:42:03;5.40;;;4.43;;
22894;SDS011;11614;52.494;6.976;2023-05-10T09:44:30;5.22;;;3.67;;
22894;SDS011;11614;52.494;6.976;2023-05-10T09:46:56;3.05;;;2.22;;
22894;SDS011;11614;52.494;6.976;2023-05-10T09:49:22;4.05;;;3.22;;
22894;SDS011;11614;52.494;6.976;2023-05-10T09:52:04;4.20;;;2.78;;
22894;SDS011;11614;52.494;6.976;2023-05-10T09:54:30;4.85;;;2.90;;
22894;SDS011;11614;52.494;6.976;2023-05-10T09:56:56;3.95;;;2.60;;
22894;SDS011;11614;52.494;6.976;2023-05-10T09:59:24;7.28;;;4.13;;
22894;SDS011;11614;52.494;6.976;2023-05-10T10:01:51;2.75;;;1.88;;
22894;SDS011;11614;52.494;6.976;2023-05-10T10:04:17;5.10;;;3.67;;
22894;SDS011;11614;52.494;6.976;2023-05-10T10:06:43;7.63;;;3.40;;
22894;SDS011;11614;52.494;6.976;2023-05-10T10:09:10;4.40;;;2.72;;
22894;SDS011;11614;52.494;6.976;2023-05-10T10:11:36;5.95;;;2.95;;
22894;SDS011;11614;52.494;6.976;2023-05-10T10:14:03;7.35;;;4.70;;
22894;SDS011;11614;52.494;6.976;2023-05-10T10:16:29;6.40;;;3.78;;
22894;SDS011;11614;52.494;6.976;2023-05-10T10:18:55;7.28;;;4.35;;
22894;SDS011;11614;52.494;6.976;2023-05-10T10:21:22;6.30;;;3.67;;
22894;SDS011;11614;52.494;6.976;2023-05-10T10:23:48;8.43;;;4.55;;
22894;SDS011;11614;52.494;6.976;2023-05-10T10:26:14;6.65;;;4.70;;
22894;SDS011;11614;52.494;6.976;2023-05-10T10:28:54;6.65;;;4.45;;
22894;SDS011;11614;52.494;6.976;2023-05-10T10:33:55;4.75;;;3.72;;
22894;SDS011;11614;52.494;6.976;2023-05-10T10:36:22;4.53;;;2.70;;
22894;SDS011;11614;52.494;6.976;2023-05-10T10:41:27;4.68;;;2.75;;
22894;SDS011;11614;52.494;6.976;2023-05-10T10:46:58;6.63;;;3.45;;
22894;SDS011;11614;52.494;6.976;2023-05-10T10:49:24;6.40;;;3.25;;
22894;SDS011;11614;52.494;6.976;2023-05-10T10:54:35;6.10;;;3.55;;
22894;SDS011;11614;52.494;6.976;2023-05-10T10:57:10;3.03;;;2.22;;
22894;SDS011;11614;52.494;6.976;2023-05-10T10:59:41;5.07;;;2.90;;
22894;SDS011;11614;52.494;6.976;2023-05-10T11:02:08;3.75;;;2.67;;
22894;SDS011;11614;52.494;6.976;2023-05-10T11:04:41;4.18;;;2.40;;
22894;SDS011;11614;52.494;6.976;2023-05-10T11:07:20;5.07;;;3.25;;
22894;SDS011;11614;52.494;6.976;2023-05-10T11:09:49;4.57;;;2.70;;
22894;SDS011;11614;52.494;6.976;2023-05-10T11:12:15;4.88;;;3.17;;
22894;SDS011;11614;52.494;6.976;2023-05-10T11:14:41;7.63;;;2.97;;
22894;SDS011;11614;52.494;6.976;2023-05-10T11:20:10;5.20;;;2.42;;
22894;SDS011;11614;52.494;6.976;2023-05-10T11:22:49;6.20;;;3.40;;
22894;SDS011;11614;52.494;6.976;2023-05-10T11:25:18;3.38;;;1.70;;
22894;SDS011;11614;52.494;6.976;2023-05-10T11:27:45;3.80;;;2.22;;
22894;SDS011;11614;52.494;6.976;2023-05-10T11:30:13;3.17;;;1.73;;
22894;SDS011;11614;52.494;6.976;2023-05-10T11:32:39;4.30;;;2.30;;
22894;SDS011;11614;52.494;6.976;2023-05-10T11:35:06;4.20;;;2.70;;
22894;SDS011;11614;52.494;6.976;2023-05-10T11:37:32;2.58;;;2.08;;
22894;SDS011;11614;52.494;6.976;2023-05-10T11:39:59;3.30;;;2.70;;
22894;SDS011;11614;52.494;6.976;2023-05-10T11:42:25;2.90;;;2.55;;
22894;SDS011;11614;52.494;6.976;2023-05-10T11:44:51;3.00;;;2.00;;
22894;SDS011;11614;52.494;6.976;2023-05-10T11:47:17;5.38;;;3.00;;
22894;SDS011;11614;52.494;6.976;2023-05-10T11:49:43;5.10;;;2.90;;
22894;SDS011;11614;52.494;6.976;2023-05-10T11:52:09;3.72;;;2.17;;
22894;SDS011;11614;52.494;6.976;2023-05-10T11:55:11;3.70;;;3.30;;
22894;SDS011;11614;52.494;6.976;2023-05-10T11:57:30;4.97;;;2.78;;
22894;SDS011;11614;52.494;6.976;2023-05-10T11:59:57;4.07;;;2.88;;
22894;SDS011;11614;52.494;6.976;2023-05-10T12:02:23;7.63;;;4.22;;
22894;SDS011;11614;52.494;6.976;2023-05-10T12:04:49;3.95;;;2.63;;
22894;SDS011;11614;52.494;6.976;2023-05-10T12:07:16;6.05;;;3.13;;
22894;SDS011;11614;52.494;6.976;2023-05-10T12:09:43;4.30;;;3.30;;
22894;SDS011;11614;52.494;6.976;2023-05-10T12:12:10;4.78;;;3.65;;
22894;SDS011;11614;52.494;6.976;2023-05-10T12:14:36;4.53;;;2.95;;
22894;SDS011;11614;52.494;6.976;2023-05-10T12:17:02;4.43;;;2.45;;
22894;SDS011;11614;52.494;6.976;2023-05-10T12:19:28;3.20;;;2.60;;
22894;SDS011;11614;52.494;6.976;2023-05-10T12:21:53;3.70;;;2.63;;
22894;SDS011;11614;52.494;6.976;2023-05-10T12:24:20;5.60;;;3.50;;
22894;SDS011;11614;52.494;6.976;2023-05-10T12:26:46;4.60;;;3.20;;
22894;SDS011;11614;52.494;6.976;2023-05-10T12:29:16;5.45;;;3.15;;
22894;SDS011;11614;52.494;6.976;2023-05-10T12:31:52;4.43;;;2.43;;
22894;SDS011;11614;52.494;6.976;2023-05-10T12:34:22;5.72;;;3.22;;
22894;SDS011;11614;52.494;6.976;2023-05-10T12:36:54;4.75;;;3.25;;
22894;SDS011;11614;52.494;6.976;2023-05-10T12:39:21;4.20;;;2.90;;
22894;SDS011;11614;52.494;6.976;2023-05-10T12:41:47;3.17;;;1.88;;
22894;SDS011;11614;52.494;6.976;2023-05-10T12:44:13;2.95;;;2.25;;
22894;SDS011;11614;52.494;6.976;2023-05-10T12:46:39;3.00;;;1.95;;
22894;SDS011;11614;52.494;6.976;2023-05-10T12:49:05;3.10;;;2.00;;
22894;SDS011;11614;52.494;6.976;2023-05-10T12:51:31;5.70;;;2.97;;
22894;SDS011;11614;52.494;6.976;2023-05-10T12:53:57;2.75;;;2.05;;
22894;SDS011;11614;52.494;6.976;2023-05-10T12:56:23;3.38;;;2.25;;
22894;SDS011;11614;52.494;6.976;2023-05-10T12:58:49;4.95;;;2.75;;
22894;SDS011;11614;52.494;6.976;2023-05-10T13:01:15;6.30;;;3.17;;
22894;SDS011;11614;52.494;6.976;2023-05-10T13:03:41;3.50;;;2.35;;
22894;SDS011;11614;52.494;6.976;2023-05-10T13:06:10;6.85;;;3.08;;
22894;SDS011;11614;52.494;6.976;2023-05-10T13:08:38;6.88;;;3.20;;
22894;SDS011;11614;52.494;6.976;2023-05-10T13:11:05;3.58;;;2.80;;
22894;SDS011;11614;52.494;6.976;2023-05-10T13:13:31;4.40;;;3.53;;
22894;SDS011;11614;52.494;6.976;2023-05-10T13:15:57;3.22;;;2.70;;
22894;SDS011;11614;52.494;6.976;2023-05-10T13:18:23;2.13;;;1.92;;
22894;SDS011;11614;52.494;6.976;2023-05-10T13:20:49;3.88;;;2.90;;
22894;SDS011;11614;52.494;6.976;2023-05-10T13:23:15;4.00;;;3.30;;
22894;SDS011;11614;52.494;6.976;2023-05-10T13:25:41;5.65;;;2.67;;
22894;SDS011;11614;52.494;6.976;2023-05-10T13:28:07;4.22;;;2.60;;
22894;SDS011;11614;52.494;6.976;2023-05-10T13:30:33;5.93;;;3.45;;
22894;SDS011;11614;52.494;6.976;2023-05-10T13:32:59;4.45;;;2.95;;
22894;SDS011;11614;52.494;6.976;2023-05-10T13:35:25;3.55;;;3.13;;
22894;SDS011;11614;52.494;6.976;2023-05-10T13:37:51;3.60;;;2.83;;
22894;SDS011;11614;52.494;6.976;2023-05-10T13:40:18;6.40;;;3.90;;
22894;SDS011;11614;52.494;6.976;2023-05-10T13:42:44;3.80;;;2.97;;
22894;SDS011;11614;52.494;6.976;2023-05-10T13:45:10;4.32;;;2.90;;
22894;SDS011;11614;52.494;6.976;2023-05-10T13:47:38;6.18;;;3.28;;
22894;SDS011;11614;52.494;6.976;2023-05-10T13:50:04;3.60;;;2.47;;
22894;SDS011;11614;52.494;6.976;2023-05-10T13:52:30;4.72;;;2.33;;
22894;SDS011;11614;52.494;6.976;2023-05-10T13:54:56;4.78;;;2.60;;
22894;SDS011;11614;52.494;6.976;2023-05-10T13:57:22;3.88;;;3.10;;
22894;SDS011;11614;52.494;6.976;2023-05-10T13:59:49;4.68;;;2.53;;
22894;SDS011;11614;52.494;6.976;2023-05-10T14:02:15;4.43;;;2.90;;
22894;SDS011;11614;52.494;6.976;2023-05-10T14:04:41;3.63;;;2.83;;
22894;SDS011;11614;52.494;6.976;2023-05-10T14:07:07;3.70;;;2.50;;
22894;SDS011;11614;52.494;6.976;2023-05-10T14:09:33;4.72;;;3.55;;
22894;SDS011;11614;52.494;6.976;2023-05-10T14:11:59;5.00;;;3.53;;
22894;SDS011;11614;52.494;6.976;2023-05-10T14:14:25;6.35;;;4.20;;
22894;SDS011;11614;52.494;6.976;2023-05-10T14:16:51;4.22;;;3.22;;
22894;SDS011;11614;52.494;6.976;2023-05-10T14:19:17;5.75;;;4.30;;
22894;SDS011;11614;52.494;6.976;2023-05-10T14:21:44;6.55;;;3.47;;
22894;SDS011;11614;52.494;6.976;2023-05-10T14:24:10;7.18;;;4.53;;
22894;SDS011;11614;52.494;6.976;2023-05-10T14:26:36;6.28;;;4.13;;
22894;SDS011;11614;52.494;6.976;2023-05-10T14:29:02;3.83;;;3.03;;
22894;SDS011;11614;52.494;6.976;2023-05-10T14:31:28;6.53;;;4.20;;
22894;SDS011;11614;52.494;6.976;2023-05-10T14:33:55;4.47;;;3.38;;
22894;SDS011;11614;52.494;6.976;2023-05-10T14:36:22;5.53;;;3.92;;
22894;SDS011;11614;52.494;6.976;2023-05-10T14:38:48;7.25;;;4.50;;
22894;SDS011;11614;52.494;6.976;2023-05-10T14:41:15;9.32;;;4.47;;
22894;SDS011;11614;52.494;6.976;2023-05-10T14:43:42;5.50;;;4.00;;
22894;SDS011;11614;52.494;6.976;2023-05-10T14:46:08;6.65;;;4.53;;
22894;SDS011;11614;52.494;6.976;2023-05-10T14:48:34;6.85;;;3.97;;
22894;SDS011;11614;52.494;6.976;2023-05-10T14:51:00;8.35;;;4.82;;
22894;SDS011;11614;52.494;6.976;2023-05-10T14:53:27;7.25;;;4.28;;
22894;SDS011;11614;52.494;6.976;2023-05-10T14:55:53;7.47;;;4.65;;
22894;SDS011;11614;52.494;6.976;2023-05-10T14:58:19;9.07;;;5.28;;
22894;SDS011;11614;52.494;6.976;2023-05-10T15:00:45;7.30;;;4.57;;
22894;SDS011;11614;52.494;6.976;2023-05-10T15:03:11;8.73;;;5.55;;
22894;SDS011;11614;52.494;6.976;2023-05-10T15:05:37;5.82;;;4.20;;